sensor_id;sensor_type;location;lat;lon;timestamp;P1;durP1;ratioP1;P2;durP2;ratioP2
20230;SDS011;10274;49.022;9.338;2023-05-06T00:01:59;2.37;;;2.17;;
20230;SDS011;10274;49.022;9.338;2023-05-06T00:04:26;2.47;;;1.90;;
20230;SDS011;10274;49.022;9.338;2023-05-06T00:06:53;2.40;;;2.03;;
20230;SDS011;10274;49.022;9.338;2023-05-06T00:09:22;2.30;;;2.10;;
20230;SDS011;10274;49.022;9.338;2023-05-06T00:11:49;2.00;;;1.80;;
20230;SDS011;10274;49.022;9.338;2023-05-06T00:14:16;1.93;;;1.77;;
20230;SDS011;10274;49.022;9.338;2023-05-06T00:16:43;2.57;;;2.00;;
20230;SDS011;10274;49.022;9.338;2023-05-06T00:19:10;1.93;;;1.70;;
20230;SDS011;10274;49.022;9.338;2023-05-06T00:21:36;2.37;;;2.03;;
20230;SDS011;10274;49.022;9.338;2023-05-06T00:24:04;2.03;;;1.83;;
20230;SDS011;10274;49.022;9.338;2023-05-06T00:26:32;1.60;;;1.50;;
20230;SDS011;10274;49.022;9.338;2023-05-06T00:28:59;2.07;;;1.70;;
20230;SDS011;10274;49.022;9.338;2023-05-06T00:31:25;2.13;;;1.93;;
20230;SDS011;10274;49.022;9.338;2023-05-06T00:33:52;2.10;;;1.90;;
20230;SDS011;10274;49.022;9.338;2023-05-06T00:36:19;3.33;;;1.93;;
20230;SDS011;10274;49.022;9.338;2023-05-06T00:38:45;1.60;;;1.50;;
20230;SDS011;10274;49.022;9.338;2023-05-06T00:41:12;2.43;;;1.77;;
20230;SDS011;10274;49.022;9.338;2023-05-06T00:43:40;1.73;;;1.63;;
20230;SDS011;10274;49.022;9.338;2023-05-06T00:46:07;1.83;;;1.47;;
20230;SDS011;10274;49.022;9.338;2023-05-06T00:48:35;1.50;;;1.30;;
20230;SDS011;10274;49.022;9.338;2023-05-06T00:51:02;2.07;;;1.73;;
20230;SDS011;10274;49.022;9.338;2023-05-06T00:53:29;2.90;;;1.70;;
20230;SDS011;10274;49.022;9.338;2023-05-06T00:55:56;2.03;;;1.67;;
20230;SDS011;10274;49.022;9.338;2023-05-06T00:58:23;1.67;;;1.57;;
20230;SDS011;10274;49.022;9.338;2023-05-06T01:00:52;1.73;;;1.57;;
20230;SDS011;10274;49.022;9.338;2023-05-06T01:03:20;2.80;;;1.83;;
20230;SDS011;10274;49.022;9.338;2023-05-06T01:05:50;1.50;;;1.40;;
20230;SDS011;10274;49.022;9.338;2023-05-06T01:08:24;2.37;;;1.87;;
20230;SDS011;10274;49.022;9.338;2023-05-06T01:10:56;2.90;;;2.10;;
20230;SDS011;10274;49.022;9.338;2023-05-06T01:13:28;1.80;;;1.70;;
20230;SDS011;10274;49.022;9.338;2023-05-06T01:16:02;1.70;;;1.60;;
20230;SDS011;10274;49.022;9.338;2023-05-06T01:18:32;2.27;;;2.00;;
20230;SDS011;10274;49.022;9.338;2023-05-06T01:20:59;2.17;;;1.97;;
20230;SDS011;10274;49.022;9.338;2023-05-06T01:23:28;4.30;;;1.97;;
20230;SDS011;10274;49.022;9.338;2023-05-06T01:26:14;2.33;;;1.70;;
20230;SDS011;10274;49.022;9.338;2023-05-06T01:28:41;2.10;;;2.00;;
20230;SDS011;10274;49.022;9.338;2023-05-06T01:31:08;2.00;;;1.80;;
20230;SDS011;10274;49.022;9.338;2023-05-06T01:33:39;2.50;;;2.03;;
20230;SDS011;10274;49.022;9.338;2023-05-06T01:36:12;1.97;;;1.87;;
20230;SDS011;10274;49.022;9.338;2023-05-06T01:38:49;2.30;;;1.90;;
20230;SDS011;10274;49.022;9.338;2023-05-06T01:41:22;1.90;;;1.80;;
20230;SDS011;10274;49.022;9.338;2023-05-06T01:43:51;2.83;;;2.10;;
20230;SDS011;10274;49.022;9.338;2023-05-06T01:46:19;1.63;;;1.53;;
20230;SDS011;10274;49.022;9.338;2023-05-06T01:48:51;2.00;;;1.90;;
20230;SDS011;10274;49.022;9.338;2023-05-06T01:51:20;2.07;;;1.73;;
20230;SDS011;10274;49.022;9.338;2023-05-06T01:53:48;1.73;;;1.63;;
20230;SDS011;10274;49.022;9.338;2023-05-06T01:56:15;2.57;;;1.73;;
20230;SDS011;10274;49.022;9.338;2023-05-06T01:58:42;2.10;;;1.87;;
20230;SDS011;10274;49.022;9.338;2023-05-06T02:01:09;1.57;;;1.47;;
20230;SDS011;10274;49.022;9.338;2023-05-06T02:03:35;2.53;;;2.33;;
20230;SDS011;10274;49.022;9.338;2023-05-06T02:06:02;1.77;;;1.67;;
20230;SDS011;10274;49.022;9.338;2023-05-06T02:08:29;1.90;;;1.80;;
20230;SDS011;10274;49.022;9.338;2023-05-06T02:10:57;2.17;;;1.97;;
20230;SDS011;10274;49.022;9.338;2023-05-06T02:13:24;1.80;;;1.70;;
20230;SDS011;10274;49.022;9.338;2023-05-06T02:15:51;1.77;;;1.57;;
20230;SDS011;10274;49.022;9.338;2023-05-06T02:18:18;3.63;;;1.90;;
20230;SDS011;10274;49.022;9.338;2023-05-06T02:20:45;1.90;;;1.80;;
20230;SDS011;10274;49.022;9.338;2023-05-06T02:23:12;1.70;;;1.60;;
20230;SDS011;10274;49.022;9.338;2023-05-06T02:25:39;1.90;;;1.80;;
20230;SDS011;10274;49.022;9.338;2023-05-06T02:28:07;2.23;;;1.87;;
20230;SDS011;10274;49.022;9.338;2023-05-06T02:30:33;1.57;;;1.47;;
20230;SDS011;10274;49.022;9.338;2023-05-06T02:33:00;2.17;;;1.97;;
20230;SDS011;10274;49.022;9.338;2023-05-06T02:35:27;2.30;;;2.10;;
20230;SDS011;10274;49.022;9.338;2023-05-06T02:37:54;2.03;;;1.83;;
20230;SDS011;10274;49.022;9.338;2023-05-06T02:40:20;2.10;;;1.90;;
20230;SDS011;10274;49.022;9.338;2023-05-06T02:42:47;1.77;;;1.63;;
20230;SDS011;10274;49.022;9.338;2023-05-06T02:45:16;2.07;;;1.80;;
20230;SDS011;10274;49.022;9.338;2023-05-06T02:47:43;1.80;;;1.70;;
20230;SDS011;10274;49.022;9.338;2023-05-06T02:50:10;1.90;;;1.73;;
20230;SDS011;10274;49.022;9.338;2023-05-06T02:52:36;1.60;;;1.50;;
20230;SDS011;10274;49.022;9.338;2023-05-06T02:55:04;1.83;;;1.73;;
20230;SDS011;10274;49.022;9.338;2023-05-06T02:57:31;2.63;;;2.03;;
20230;SDS011;10274;49.022;9.338;2023-05-06T02:59:58;2.20;;;2.00;;
20230;SDS011;10274;49.022;9.338;2023-05-06T03:02:26;2.13;;;1.93;;
20230;SDS011;10274;49.022;9.338;2023-05-06T03:04:53;2.40;;;2.20;;
20230;SDS011;10274;49.022;9.338;2023-05-06T03:07:19;2.30;;;2.10;;
20230;SDS011;10274;49.022;9.338;2023-05-06T03:09:46;2.33;;;2.13;;
20230;SDS011;10274;49.022;9.338;2023-05-06T03:12:13;2.47;;;2.27;;
20230;SDS011;10274;49.022;9.338;2023-05-06T03:14:39;2.00;;;1.63;;
20230;SDS011;10274;49.022;9.338;2023-05-06T03:17:06;2.37;;;1.87;;
20230;SDS011;10274;49.022;9.338;2023-05-06T03:19:34;2.47;;;2.20;;
20230;SDS011;10274;49.022;9.338;2023-05-06T03:22:01;2.13;;;1.93;;
20230;SDS011;10274;49.022;9.338;2023-05-06T03:24:27;2.20;;;2.00;;
20230;SDS011;10274;49.022;9.338;2023-05-06T03:26:54;2.00;;;1.83;;
20230;SDS011;10274;49.022;9.338;2023-05-06T03:29:22;2.00;;;1.90;;
20230;SDS011;10274;49.022;9.338;2023-05-06T03:31:49;2.20;;;2.00;;
20230;SDS011;10274;49.022;9.338;2023-05-06T03:34:15;2.63;;;2.43;;
20230;SDS011;10274;49.022;9.338;2023-05-06T03:36:43;2.30;;;2.03;;
20230;SDS011;10274;49.022;9.338;2023-05-06T03:39:10;2.50;;;2.00;;
20230;SDS011;10274;49.022;9.338;2023-05-06T03:41:37;2.63;;;2.33;;
20230;SDS011;10274;49.022;9.338;2023-05-06T03:44:04;1.97;;;1.77;;
20230;SDS011;10274;49.022;9.338;2023-05-06T03:46:30;2.10;;;1.90;;
20230;SDS011;10274;49.022;9.338;2023-05-06T03:48:57;4.57;;;2.57;;
20230;SDS011;10274;49.022;9.338;2023-05-06T03:51:26;2.30;;;2.10;;
20230;SDS011;10274;49.022;9.338;2023-05-06T03:53:54;1.90;;;1.80;;
20230;SDS011;10274;49.022;9.338;2023-05-06T03:56:21;2.37;;;2.17;;
20230;SDS011;10274;49.022;9.338;2023-05-06T03:58:48;2.23;;;1.90;;
20230;SDS011;10274;49.022;9.338;2023-05-06T04:01:15;2.50;;;2.30;;
20230;SDS011;10274;49.022;9.338;2023-05-06T04:03:42;2.77;;;2.40;;
20230;SDS011;10274;49.022;9.338;2023-05-06T04:06:09;2.57;;;2.37;;
20230;SDS011;10274;49.022;9.338;2023-05-06T04:08:35;2.60;;;2.37;;
20230;SDS011;10274;49.022;9.338;2023-05-06T04:11:04;3.27;;;2.47;;
20230;SDS011;10274;49.022;9.338;2023-05-06T04:13:31;3.10;;;2.80;;
20230;SDS011;10274;49.022;9.338;2023-05-06T04:15:57;2.37;;;2.17;;
20230;SDS011;10274;49.022;9.338;2023-05-06T04:18:24;3.03;;;2.37;;
20230;SDS011;10274;49.022;9.338;2023-05-06T04:20:51;4.50;;;2.40;;
20230;SDS011;10274;49.022;9.338;2023-05-06T04:23:17;2.30;;;2.00;;
20230;SDS011;10274;49.022;9.338;2023-05-06T04:25:45;2.53;;;2.33;;
20230;SDS011;10274;49.022;9.338;2023-05-06T04:28:14;3.00;;;2.63;;
20230;SDS011;10274;49.022;9.338;2023-05-06T04:30:42;3.60;;;2.60;;
20230;SDS011;10274;49.022;9.338;2023-05-06T04:33:09;3.03;;;2.30;;
20230;SDS011;10274;49.022;9.338;2023-05-06T04:35:36;3.13;;;2.50;;
20230;SDS011;10274;49.022;9.338;2023-05-06T04:38:02;3.17;;;2.87;;
20230;SDS011;10274;49.022;9.338;2023-05-06T04:40:30;5.40;;;2.40;;
20230;SDS011;10274;49.022;9.338;2023-05-06T04:42:59;2.53;;;2.33;;
20230;SDS011;10274;49.022;9.338;2023-05-06T04:45:28;2.83;;;2.37;;
20230;SDS011;10274;49.022;9.338;2023-05-06T04:47:56;2.50;;;2.20;;
20230;SDS011;10274;49.022;9.338;2023-05-06T04:50:23;3.43;;;3.13;;
20230;SDS011;10274;49.022;9.338;2023-05-06T04:52:49;3.77;;;3.20;;
20230;SDS011;10274;49.022;9.338;2023-05-06T04:55:16;4.30;;;3.57;;
20230;SDS011;10274;49.022;9.338;2023-05-06T04:57:43;3.53;;;3.23;;
20230;SDS011;10274;49.022;9.338;2023-05-06T05:00:10;4.00;;;3.40;;
20230;SDS011;10274;49.022;9.338;2023-05-06T05:02:39;2.33;;;2.13;;
20230;SDS011;10274;49.022;9.338;2023-05-06T05:05:06;3.17;;;2.87;;
20230;SDS011;10274;49.022;9.338;2023-05-06T05:07:33;3.43;;;2.70;;
20230;SDS011;10274;49.022;9.338;2023-05-06T05:10:00;3.80;;;3.50;;
20230;SDS011;10274;49.022;9.338;2023-05-06T05:12:26;3.80;;;3.40;;
20230;SDS011;10274;49.022;9.338;2023-05-06T05:14:53;3.70;;;3.30;;
20230;SDS011;10274;49.022;9.338;2023-05-06T05:17:20;4.00;;;3.30;;
20230;SDS011;10274;49.022;9.338;2023-05-06T05:19:48;3.53;;;3.23;;
20230;SDS011;10274;49.022;9.338;2023-05-06T05:22:14;3.77;;;3.13;;
20230;SDS011;10274;49.022;9.338;2023-05-06T05:24:41;4.43;;;3.50;;
20230;SDS011;10274;49.022;9.338;2023-05-06T05:27:08;3.47;;;3.00;;
20230;SDS011;10274;49.022;9.338;2023-05-06T05:29:34;3.33;;;3.03;;
20230;SDS011;10274;49.022;9.338;2023-05-06T05:32:01;3.90;;;3.13;;
20230;SDS011;10274;49.022;9.338;2023-05-06T05:34:28;3.37;;;3.00;;
20230;SDS011;10274;49.022;9.338;2023-05-06T05:36:56;3.50;;;3.20;;
20230;SDS011;10274;49.022;9.338;2023-05-06T05:39:23;3.73;;;3.27;;
20230;SDS011;10274;49.022;9.338;2023-05-06T05:41:50;3.83;;;3.40;;
20230;SDS011;10274;49.022;9.338;2023-05-06T05:44:16;4.30;;;3.90;;
20230;SDS011;10274;49.022;9.338;2023-05-06T05:46:43;3.73;;;3.37;;
20230;SDS011;10274;49.022;9.338;2023-05-06T05:49:10;4.77;;;4.30;;
20230;SDS011;10274;49.022;9.338;2023-05-06T05:51:36;5.70;;;4.50;;
20230;SDS011;10274;49.022;9.338;2023-05-06T05:54:04;4.23;;;3.83;;
20230;SDS011;10274;49.022;9.338;2023-05-06T05:56:31;5.30;;;3.83;;
20230;SDS011;10274;49.022;9.338;2023-05-06T05:58:58;4.93;;;4.30;;
20230;SDS011;10274;49.022;9.338;2023-05-06T06:01:25;7.57;;;4.77;;
20230;SDS011;10274;49.022;9.338;2023-05-06T06:03:52;5.17;;;4.30;;
20230;SDS011;10274;49.022;9.338;2023-05-06T06:06:20;5.23;;;4.57;;
20230;SDS011;10274;49.022;9.338;2023-05-06T06:08:47;6.23;;;4.80;;
20230;SDS011;10274;49.022;9.338;2023-05-06T06:11:15;4.93;;;4.03;;
20230;SDS011;10274;49.022;9.338;2023-05-06T06:13:42;5.27;;;4.67;;
20230;SDS011;10274;49.022;9.338;2023-05-06T06:16:09;6.70;;;4.50;;
20230;SDS011;10274;49.022;9.338;2023-05-06T06:18:35;5.27;;;3.80;;
20230;SDS011;10274;49.022;9.338;2023-05-06T06:21:02;5.37;;;4.47;;
20230;SDS011;10274;49.022;9.338;2023-05-06T06:23:29;5.10;;;4.60;;
20230;SDS011;10274;49.022;9.338;2023-05-06T06:25:56;5.83;;;4.70;;
20230;SDS011;10274;49.022;9.338;2023-05-06T06:28:24;5.20;;;4.43;;
20230;SDS011;10274;49.022;9.338;2023-05-06T06:30:51;8.97;;;5.67;;
20230;SDS011;10274;49.022;9.338;2023-05-06T06:33:17;8.43;;;5.67;;
20230;SDS011;10274;49.022;9.338;2023-05-06T06:35:44;6.83;;;5.63;;
20230;SDS011;10274;49.022;9.338;2023-05-06T06:38:10;7.37;;;5.53;;
20230;SDS011;10274;49.022;9.338;2023-05-06T06:40:37;6.83;;;5.40;;
20230;SDS011;10274;49.022;9.338;2023-05-06T06:43:04;6.53;;;5.17;;
20230;SDS011;10274;49.022;9.338;2023-05-06T06:45:32;6.20;;;5.13;;
20230;SDS011;10274;49.022;9.338;2023-05-06T06:47:59;5.63;;;4.20;;
20230;SDS011;10274;49.022;9.338;2023-05-06T06:50:25;5.67;;;4.23;;
20230;SDS011;10274;49.022;9.338;2023-05-06T06:52:52;5.67;;;4.67;;
20230;SDS011;10274;49.022;9.338;2023-05-06T06:55:19;5.27;;;4.63;;
20230;SDS011;10274;49.022;9.338;2023-05-06T06:57:46;4.63;;;4.20;;
20230;SDS011;10274;49.022;9.338;2023-05-06T07:00:13;4.13;;;3.73;;
20230;SDS011;10274;49.022;9.338;2023-05-06T07:02:41;4.03;;;3.50;;
20230;SDS011;10274;49.022;9.338;2023-05-06T07:05:10;3.70;;;3.40;;
20230;SDS011;10274;49.022;9.338;2023-05-06T07:07:37;4.00;;;3.60;;
20230;SDS011;10274;49.022;9.338;2023-05-06T07:10:04;4.20;;;3.80;;
20230;SDS011;10274;49.022;9.338;2023-05-06T07:12:32;4.47;;;3.63;;
20230;SDS011;10274;49.022;9.338;2023-05-06T07:14:58;3.73;;;2.97;;
20230;SDS011;10274;49.022;9.338;2023-05-06T07:17:25;4.17;;;3.57;;
20230;SDS011;10274;49.022;9.338;2023-05-06T07:19:53;5.20;;;3.90;;
20230;SDS011;10274;49.022;9.338;2023-05-06T07:22:20;6.20;;;4.07;;
20230;SDS011;10274;49.022;9.338;2023-05-06T07:24:46;5.50;;;3.97;;
20230;SDS011;10274;49.022;9.338;2023-05-06T07:27:13;3.73;;;3.03;;
20230;SDS011;10274;49.022;9.338;2023-05-06T07:29:40;6.10;;;3.80;;
20230;SDS011;10274;49.022;9.338;2023-05-06T07:32:06;4.03;;;3.60;;
20230;SDS011;10274;49.022;9.338;2023-05-06T07:34:33;4.60;;;3.63;;
20230;SDS011;10274;49.022;9.338;2023-05-06T07:37:01;4.53;;;3.60;;
20230;SDS011;10274;49.022;9.338;2023-05-06T07:39:28;3.63;;;2.70;;
20230;SDS011;10274;49.022;9.338;2023-05-06T07:41:55;3.57;;;3.00;;
20230;SDS011;10274;49.022;9.338;2023-05-06T07:44:22;3.30;;;3.00;;
20230;SDS011;10274;49.022;9.338;2023-05-06T07:46:49;3.37;;;3.07;;
20230;SDS011;10274;49.022;9.338;2023-05-06T07:49:15;3.30;;;3.00;;
20230;SDS011;10274;49.022;9.338;2023-05-06T07:51:42;2.70;;;2.50;;
20230;SDS011;10274;49.022;9.338;2023-05-06T07:54:11;3.57;;;2.37;;
20230;SDS011;10274;49.022;9.338;2023-05-06T07:56:37;2.67;;;2.17;;
20230;SDS011;10274;49.022;9.338;2023-05-06T07:59:04;2.30;;;2.10;;
20230;SDS011;10274;49.022;9.338;2023-05-06T08:01:31;2.93;;;2.43;;
20230;SDS011;10274;49.022;9.338;2023-05-06T08:03:57;2.40;;;2.20;;
20230;SDS011;10274;49.022;9.338;2023-05-06T08:06:24;2.27;;;1.97;;
20230;SDS011;10274;49.022;9.338;2023-05-06T08:08:51;2.60;;;2.27;;
20230;SDS011;10274;49.022;9.338;2023-05-06T08:11:19;3.57;;;2.30;;
20230;SDS011;10274;49.022;9.338;2023-05-06T08:13:45;3.60;;;2.67;;
20230;SDS011;10274;49.022;9.338;2023-05-06T08:16:12;2.73;;;2.33;;
20230;SDS011;10274;49.022;9.338;2023-05-06T08:18:39;3.70;;;2.40;;
20230;SDS011;10274;49.022;9.338;2023-05-06T08:21:06;2.50;;;2.30;;
20230;SDS011;10274;49.022;9.338;2023-05-06T08:23:32;2.40;;;2.20;;
20230;SDS011;10274;49.022;9.338;2023-05-06T08:25:59;2.63;;;2.33;;
20230;SDS011;10274;49.022;9.338;2023-05-06T08:28:27;3.40;;;2.70;;
20230;SDS011;10274;49.022;9.338;2023-05-06T08:30:54;2.13;;;1.93;;
20230;SDS011;10274;49.022;9.338;2023-05-06T08:33:21;2.50;;;2.30;;
20230;SDS011;10274;49.022;9.338;2023-05-06T08:35:47;2.50;;;2.30;;
20230;SDS011;10274;49.022;9.338;2023-05-06T08:38:14;2.30;;;2.10;;
20230;SDS011;10274;49.022;9.338;2023-05-06T08:40:42;2.20;;;2.00;;
20230;SDS011;10274;49.022;9.338;2023-05-06T08:43:11;2.50;;;2.30;;
20230;SDS011;10274;49.022;9.338;2023-05-06T08:45:39;2.30;;;2.10;;
20230;SDS011;10274;49.022;9.338;2023-05-06T08:48:06;2.03;;;1.90;;
20230;SDS011;10274;49.022;9.338;2023-05-06T08:50:33;1.90;;;1.80;;
20230;SDS011;10274;49.022;9.338;2023-05-06T08:53:05;2.72;;;2.00;;
20230;SDS011;10274;49.022;9.338;2023-05-06T08:55:33;2.72;;;1.65;;
20230;SDS011;10274;49.022;9.338;2023-05-06T08:58:00;1.88;;;1.77;;
20230;SDS011;10274;49.022;9.338;2023-05-06T09:00:29;1.65;;;1.55;;
20230;SDS011;10274;49.022;9.338;2023-05-06T09:02:57;1.67;;;1.58;;
20230;SDS011;10274;49.022;9.338;2023-05-06T09:05:25;1.45;;;1.35;;
20230;SDS011;10274;49.022;9.338;2023-05-06T09:07:52;1.83;;;1.55;;
20230;SDS011;10274;49.022;9.338;2023-05-06T09:10:19;3.70;;;1.45;;
20230;SDS011;10274;49.022;9.338;2023-05-06T09:12:46;2.08;;;1.55;;
20230;SDS011;10274;49.022;9.338;2023-05-06T09:15:12;0.55;;;0.55;;
20230;SDS011;10274;49.022;9.338;2023-05-06T09:17:39;0.80;;;0.80;;
20230;SDS011;10274;49.022;9.338;2023-05-06T09:20:10;0.50;;;0.50;;
20230;SDS011;10274;49.022;9.338;2023-05-06T09:22:37;0.80;;;0.80;;
20230;SDS011;10274;49.022;9.338;2023-05-06T09:25:04;1.38;;;1.27;;
20230;SDS011;10274;49.022;9.338;2023-05-06T09:27:32;2.33;;;0.70;;
20230;SDS011;10274;49.022;9.338;2023-05-06T09:30:01;1.90;;;0.85;;
20230;SDS011;10274;49.022;9.338;2023-05-06T09:32:30;1.00;;;0.90;;
20230;SDS011;10274;49.022;9.338;2023-05-06T09:34:57;1.13;;;0.80;;
20230;SDS011;10274;49.022;9.338;2023-05-06T09:37:25;0.52;;;0.43;;
20230;SDS011;10274;49.022;9.338;2023-05-06T09:39:53;0.70;;;0.70;;
20230;SDS011;10274;49.022;9.338;2023-05-06T09:42:20;0.93;;;0.60;;
20230;SDS011;10274;49.022;9.338;2023-05-06T09:44:49;0.60;;;0.60;;
20230;SDS011;10274;49.022;9.338;2023-05-06T09:47:18;0.60;;;0.60;;
20230;SDS011;10274;49.022;9.338;2023-05-06T09:49:46;0.60;;;0.60;;
20230;SDS011;10274;49.022;9.338;2023-05-06T09:52:13;0.32;;;0.32;;
20230;SDS011;10274;49.022;9.338;2023-05-06T09:54:41;0.63;;;0.55;;
20230;SDS011;10274;49.022;9.338;2023-05-06T09:57:10;0.50;;;0.50;;
20230;SDS011;10274;49.022;9.338;2023-05-06T09:59:39;0.65;;;0.57;;
20230;SDS011;10274;49.022;9.338;2023-05-06T10:02:08;0.60;;;0.60;;
20230;SDS011;10274;49.022;9.338;2023-05-06T10:04:37;2.60;;;0.70;;
20230;SDS011;10274;49.022;9.338;2023-05-06T10:07:05;4.10;;;0.60;;
20230;SDS011;10274;49.022;9.338;2023-05-06T10:09:33;0.65;;;0.50;;
20230;SDS011;10274;49.022;9.338;2023-05-06T10:12:04;0.60;;;0.60;;
20230;SDS011;10274;49.022;9.338;2023-05-06T10:14:32;1.80;;;0.90;;
20230;SDS011;10274;49.022;9.338;2023-05-06T10:16:59;1.13;;;0.65;;
20230;SDS011;10274;49.022;9.338;2023-05-06T10:19:26;0.80;;;0.70;;
20230;SDS011;10274;49.022;9.338;2023-05-06T10:21:59;0.65;;;0.65;;
20230;SDS011;10274;49.022;9.338;2023-05-06T10:24:31;0.57;;;0.57;;
20230;SDS011;10274;49.022;9.338;2023-05-06T10:27:02;0.70;;;0.70;;
20230;SDS011;10274;49.022;9.338;2023-05-06T10:29:32;0.65;;;0.43;;
20230;SDS011;10274;49.022;9.338;2023-05-06T10:32:01;0.75;;;0.65;;
20230;SDS011;10274;49.022;9.338;2023-05-06T10:34:30;0.57;;;0.57;;
20230;SDS011;10274;49.022;9.338;2023-05-06T10:37:01;2.08;;;0.57;;
20230;SDS011;10274;49.022;9.338;2023-05-06T10:39:29;1.20;;;0.90;;
20230;SDS011;10274;49.022;9.338;2023-05-06T10:41:57;0.90;;;0.90;;
20230;SDS011;10274;49.022;9.338;2023-05-06T10:47:27;1.00;;;0.90;;
20230;SDS011;10274;49.022;9.338;2023-05-06T10:52:46;1.70;;;0.80;;
20230;SDS011;10274;49.022;9.338;2023-05-06T10:55:25;1.65;;;0.77;;
20230;SDS011;10274;49.022;9.338;2023-05-06T10:57:53;0.90;;;0.70;;
20230;SDS011;10274;49.022;9.338;2023-05-06T11:00:22;1.83;;;0.90;;
20230;SDS011;10274;49.022;9.338;2023-05-06T11:02:53;1.33;;;0.80;;
20230;SDS011;10274;49.022;9.338;2023-05-06T11:05:21;0.50;;;0.50;;
20230;SDS011;10274;49.022;9.338;2023-05-06T11:07:48;0.60;;;0.60;;
20230;SDS011;10274;49.022;9.338;2023-05-06T11:10:29;1.00;;;0.80;;
20230;SDS011;10274;49.022;9.338;2023-05-06T11:12:57;0.47;;;0.45;;
20230;SDS011;10274;49.022;9.338;2023-05-06T11:15:26;0.30;;;0.20;;
20230;SDS011;10274;49.022;9.338;2023-05-06T11:24:09;0.70;;;0.55;;
20230;SDS011;10274;49.022;9.338;2023-05-06T11:26:40;0.40;;;0.30;;
20230;SDS011;10274;49.022;9.338;2023-05-06T11:29:08;0.60;;;0.60;;
20230;SDS011;10274;49.022;9.338;2023-05-06T11:31:40;0.50;;;0.50;;
20230;SDS011;10274;49.022;9.338;2023-05-06T11:34:09;0.88;;;0.47;;
20230;SDS011;10274;49.022;9.338;2023-05-06T11:36:44;0.73;;;0.47;;
20230;SDS011;10274;49.022;9.338;2023-05-06T11:39:12;0.60;;;0.47;;
20230;SDS011;10274;49.022;9.338;2023-05-06T11:41:39;0.52;;;0.52;;
20230;SDS011;10274;49.022;9.338;2023-05-06T11:44:06;1.70;;;0.57;;
20230;SDS011;10274;49.022;9.338;2023-05-06T11:46:36;0.32;;;0.32;;
20230;SDS011;10274;49.022;9.338;2023-05-06T11:49:04;1.55;;;0.50;;
20230;SDS011;10274;49.022;9.338;2023-05-06T11:51:31;0.50;;;0.47;;
20230;SDS011;10274;49.022;9.338;2023-05-06T11:54:07;0.52;;;0.52;;
20230;SDS011;10274;49.022;9.338;2023-05-06T11:56:42;0.60;;;0.50;;
20230;SDS011;10274;49.022;9.338;2023-05-06T11:59:13;1.20;;;0.30;;
20230;SDS011;10274;49.022;9.338;2023-05-06T12:01:40;0.98;;;0.57;;
20230;SDS011;10274;49.022;9.338;2023-05-06T12:04:09;0.95;;;0.70;;
20230;SDS011;10274;49.022;9.338;2023-05-06T12:06:36;0.40;;;0.40;;
20230;SDS011;10274;49.022;9.338;2023-05-06T12:09:04;0.50;;;0.50;;
20230;SDS011;10274;49.022;9.338;2023-05-06T12:11:32;1.45;;;0.40;;
20230;SDS011;10274;49.022;9.338;2023-05-06T12:14:01;0.50;;;0.50;;
20230;SDS011;10274;49.022;9.338;2023-05-06T12:16:29;1.08;;;0.70;;
20230;SDS011;10274;49.022;9.338;2023-05-06T12:18:56;0.85;;;0.63;;
20230;SDS011;10274;49.022;9.338;2023-05-06T12:21:24;0.43;;;0.38;;
20230;SDS011;10274;49.022;9.338;2023-05-06T12:23:51;0.30;;;0.30;;
20230;SDS011;10274;49.022;9.338;2023-05-06T12:26:18;0.50;;;0.50;;
20230;SDS011;10274;49.022;9.338;2023-05-06T12:28:46;0.70;;;0.70;;
20230;SDS011;10274;49.022;9.338;2023-05-06T12:31:28;0.50;;;0.50;;
20230;SDS011;10274;49.022;9.338;2023-05-06T12:33:55;0.30;;;0.30;;
20230;SDS011;10274;49.022;9.338;2023-05-06T12:36:21;0.40;;;0.40;;
20230;SDS011;10274;49.022;9.338;2023-05-06T12:38:50;0.57;;;0.52;;
20230;SDS011;10274;49.022;9.338;2023-05-06T12:41:17;0.70;;;0.40;;
20230;SDS011;10274;49.022;9.338;2023-05-06T12:43:44;0.82;;;0.68;;
20230;SDS011;10274;49.022;9.338;2023-05-06T12:46:13;0.50;;;0.50;;
20230;SDS011;10274;49.022;9.338;2023-05-06T12:51:17;0.38;;;0.38;;
20230;SDS011;10274;49.022;9.338;2023-05-06T12:53:47;1.55;;;0.73;;
20230;SDS011;10274;49.022;9.338;2023-05-06T12:56:13;0.50;;;0.47;;
20230;SDS011;10274;49.022;9.338;2023-05-06T12:58:40;0.45;;;0.45;;
20230;SDS011;10274;49.022;9.338;2023-05-06T13:01:07;0.60;;;0.60;;
20230;SDS011;10274;49.022;9.338;2023-05-06T13:03:34;0.63;;;0.52;;
20230;SDS011;10274;49.022;9.338;2023-05-06T13:06:01;0.35;;;0.35;;
20230;SDS011;10274;49.022;9.338;2023-05-06T13:08:28;0.40;;;0.40;;
20230;SDS011;10274;49.022;9.338;2023-05-06T13:10:56;0.52;;;0.52;;
20230;SDS011;10274;49.022;9.338;2023-05-06T13:13:25;0.40;;;0.40;;
20230;SDS011;10274;49.022;9.338;2023-05-06T13:15:52;0.75;;;0.63;;
20230;SDS011;10274;49.022;9.338;2023-05-06T13:18:19;0.40;;;0.40;;
20230;SDS011;10274;49.022;9.338;2023-05-06T13:20:46;1.17;;;0.50;;
20230;SDS011;10274;49.022;9.338;2023-05-06T13:23:13;0.57;;;0.50;;
20230;SDS011;10274;49.022;9.338;2023-05-06T13:25:39;0.68;;;0.65;;
20230;SDS011;10274;49.022;9.338;2023-05-06T13:28:08;1.02;;;0.40;;
20230;SDS011;10274;49.022;9.338;2023-05-06T13:30:35;0.98;;;0.60;;
20230;SDS011;10274;49.022;9.338;2023-05-06T13:33:01;0.90;;;0.82;;
20230;SDS011;10274;49.022;9.338;2023-05-06T13:35:29;0.45;;;0.45;;
20230;SDS011;10274;49.022;9.338;2023-05-06T13:37:55;0.95;;;0.40;;
20230;SDS011;10274;49.022;9.338;2023-05-06T13:40:22;0.55;;;0.50;;
20230;SDS011;10274;49.022;9.338;2023-05-06T13:42:49;0.50;;;0.50;;
20230;SDS011;10274;49.022;9.338;2023-05-06T13:45:17;0.55;;;0.40;;
20230;SDS011;10274;49.022;9.338;2023-05-06T13:47:43;0.57;;;0.50;;
20230;SDS011;10274;49.022;9.338;2023-05-06T13:50:10;0.80;;;0.45;;
20230;SDS011;10274;49.022;9.338;2023-05-06T13:52:37;0.22;;;0.22;;
20230;SDS011;10274;49.022;9.338;2023-05-06T13:55:04;0.50;;;0.50;;
20230;SDS011;10274;49.022;9.338;2023-05-06T13:57:32;0.50;;;0.50;;
20230;SDS011;10274;49.022;9.338;2023-05-06T13:59:58;0.70;;;0.60;;
20230;SDS011;10274;49.022;9.338;2023-05-06T14:02:26;0.52;;;0.52;;
20230;SDS011;10274;49.022;9.338;2023-05-06T14:04:53;0.82;;;0.63;;
20230;SDS011;10274;49.022;9.338;2023-05-06T14:07:20;1.40;;;0.60;;
20230;SDS011;10274;49.022;9.338;2023-05-06T14:09:46;1.70;;;0.88;;
20230;SDS011;10274;49.022;9.338;2023-05-06T14:12:13;0.70;;;0.60;;
20230;SDS011;10274;49.022;9.338;2023-05-06T14:14:40;1.38;;;0.60;;
20230;SDS011;10274;49.022;9.338;2023-05-06T14:17:06;0.88;;;0.70;;
20230;SDS011;10274;49.022;9.338;2023-05-06T14:19:35;1.63;;;0.90;;
20230;SDS011;10274;49.022;9.338;2023-05-06T14:22:02;0.47;;;0.40;;
20230;SDS011;10274;49.022;9.338;2023-05-06T14:24:28;0.80;;;0.50;;
20230;SDS011;10274;49.022;9.338;2023-05-06T14:26:55;0.38;;;0.38;;
20230;SDS011;10274;49.022;9.338;2023-05-06T14:29:22;0.90;;;0.57;;
20230;SDS011;10274;49.022;9.338;2023-05-06T14:31:48;1.05;;;0.50;;
20230;SDS011;10274;49.022;9.338;2023-05-06T14:34:17;0.50;;;0.43;;
20230;SDS011;10274;49.022;9.338;2023-05-06T14:36:45;0.73;;;0.57;;
20230;SDS011;10274;49.022;9.338;2023-05-06T14:39:11;0.43;;;0.40;;
20230;SDS011;10274;49.022;9.338;2023-05-06T14:41:38;0.80;;;0.60;;
20230;SDS011;10274;49.022;9.338;2023-05-06T14:44:05;0.57;;;0.50;;
20230;SDS011;10274;49.022;9.338;2023-05-06T14:46:32;0.35;;;0.35;;
20230;SDS011;10274;49.022;9.338;2023-05-06T14:48:58;0.90;;;0.57;;
20230;SDS011;10274;49.022;9.338;2023-05-06T14:51:25;0.57;;;0.43;;
20230;SDS011;10274;49.022;9.338;2023-05-06T14:53:53;0.82;;;0.50;;
20230;SDS011;10274;49.022;9.338;2023-05-06T14:56:20;0.57;;;0.57;;
20230;SDS011;10274;49.022;9.338;2023-05-06T14:58:47;0.30;;;0.30;;
20230;SDS011;10274;49.022;9.338;2023-05-06T15:01:13;0.40;;;0.40;;
20230;SDS011;10274;49.022;9.338;2023-05-06T15:03:40;0.60;;;0.30;;
20230;SDS011;10274;49.022;9.338;2023-05-06T15:06:07;0.50;;;0.43;;